Time;durP1;ratioP1;P1;durP2;ratioP2;P2;SDS_P1;SDS_P2;PMS_P1;PMS_P2;Temp;Humidity;BMP_temperature;BMP_pressure;BME280_temperature;BME280_humidity;BME280_pressure;Samples;Min_cycle;Max_cycle;Signal;HPM_P1;HPM_P2
2021/11/16 00:00:05;;;;;;;940.03;874.65;;;;;;;7.63;65.99;102212.88;688469;28;46354;-70
2021/11/16 00:00:32;;;;;;;942.03;876.58;;;;;;;7.59;65.78;102217.66;684485;28;157408;-70
2021/11/16 00:00:53;;;;;;;946.95;881.45;;;;;;;7.56;66.05;102213.34;689728;28;21512;-70
2021/11/16 00:01:15;;;;;;;945.30;879.78;;;;;;;7.56;66.03;102216.03;688086;28;46287;-70
2021/11/16 00:01:38;;;;;;;947.45;881.85;;;;;;;7.57;65.97;102216.94;688508;28;45378;-70
2021/11/16 00:01:59;;;;;;;947.78;882.17;;;;;;;7.57;66.13;102220.47;688753;28;45275;-70
2021/11/16 00:02:20;;;;;;;953.63;887.97;;;;;;;7.56;66.28;102210.66;689687;28;24152;-70
2021/11/16 00:02:41;;;;;;;944.17;878.75;;;;;;;7.56;66.06;102212.50;688258;28;22378;-70
2021/11/16 00:03:03;;;;;;;945.40;879.80;;;;;;;7.56;66.08;102213.34;688940;28;46342;-70
2021/11/16 00:03:24;;;;;;;947.03;881.50;;;;;;;7.53;66.22;102205.53;688677;28;45135;-70
2021/11/16 00:03:45;;;;;;;935.35;870.17;;;;;;;7.57;66.14;102217.78;689572;28;23489;-70
2021/11/16 00:04:06;;;;;;;937.85;872.65;;;;;;;7.59;66.26;102217.66;689445;28;22393;-71
2021/11/16 00:04:28;;;;;;;941.28;875.90;;;;;;;7.57;66.23;102209.72;689585;28;22368;-70
2021/11/16 00:04:50;;;;;;;951.15;885.40;;;;;;;7.60;66.18;102208.59;688841;28;46280;-70
2021/11/16 00:05:11;;;;;;;950.05;884.55;;;;;;;7.60;66.06;102213.97;688281;28;44201;-70
2021/11/16 00:05:34;;;;;;;956.53;890.65;;;;;;;7.60;65.92;102211.28;689136;28;23308;-70
2021/11/16 00:05:55;;;;;;;947.78;882.08;;;;;;;7.61;65.95;102204.09;687894;28;68335;-70
2021/11/16 00:06:16;;;;;;;949.50;883.80;;;;;;;7.60;65.85;102205.91;689265;28;22397;-70
2021/11/16 00:06:38;;;;;;;948.83;883.13;;;;;;;7.60;65.87;102210.44;689551;28;22139;-70
2021/11/16 00:07:00;;;;;;;951.08;885.42;;;;;;;7.57;65.96;102204.31;688620;28;46381;-70
2021/11/16 00:07:21;;;;;;;946.47;881.03;;;;;;;7.60;65.82;102211.28;688724;28;45193;-70
2021/11/16 00:07:42;;;;;;;942.65;877.05;;;;;;;7.59;66.21;102206.91;688739;28;21535;-70
2021/11/16 00:08:04;;;;;;;950.00;884.20;;;;;;;7.58;65.90;102206.03;689485;28;21349;-70
2021/11/16 00:08:26;;;;;;;948.58;882.95;;;;;;;7.58;66.15;102207.84;688571;28;45349;-70
2021/11/16 00:08:47;;;;;;;948.90;883.28;;;;;;;7.57;65.84;102203.47;688879;28;46317;-70
2021/11/16 00:09:08;;;;;;;954.42;888.65;;;;;;;7.58;66.01;102210.56;689441;28;22404;-70
2021/11/16 00:09:29;;;;;;;963.50;897.45;;;;;;;7.56;66.18;102205.28;689375;28;21486;-70
2021/11/16 00:09:51;;;;;;;956.60;890.60;;;;;;;7.56;65.91;102207.13;688386;28;46284;-70
2021/11/16 00:10:14;;;;;;;959.50;893.42;;;;;;;7.54;66.11;102207.25;688389;28;46245;-70
2021/11/16 00:10:44;;;;;;;950.03;884.22;;;;;;;7.52;66.07;102203.84;688298;28;58843;-70
2021/11/16 00:11:05;;;;;;;950.75;885.05;;;;;;;7.52;66.16;102203.84;691978;28;22433;-69
2021/11/16 00:11:27;;;;;;;959.53;893.50;;;;;;;7.53;66.35;102208.22;691044;28;45210;-70
2021/11/16 00:11:48;;;;;;;947.97;882.30;;;;;;;7.53;66.21;102205.53;691173;28;45233;-70
2021/11/16 00:12:10;;;;;;;951.35;885.72;;;;;;;7.53;66.41;102205.53;692221;28;23475;-70
2021/11/16 00:12:31;;;;;;;945.00;879.47;;;;;;;7.53;66.22;102200.16;691823;28;23441;-70
2021/11/16 00:12:53;;;;;;;946.38;880.67;;;;;;;7.52;66.50;102203.84;691494;28;23477;-70
2021/11/16 00:13:15;;;;;;;955.83;889.90;;;;;;;7.52;66.19;102203.84;689014;28;46717;-70
2021/11/16 00:13:36;;;;;;;957.60;891.70;;;;;;;7.53;66.19;102200.16;688547;28;45201;-70
2021/11/16 00:13:57;;;;;;;949.72;884.03;;;;;;;7.54;66.38;102203.72;688914;28;21516;-70
2021/11/16 00:14:18;;;;;;;952.75;886.97;;;;;;;7.54;66.24;102203.72;689353;28;23288;-70
2021/11/16 00:14:41;;;;;;;942.78;877.38;;;;;;;7.57;66.38;102200.78;688480;28;44401;-70
2021/11/16 00:15:03;;;;;;;923.10;858.40;;;;;;;7.58;66.30;102200.63;688903;28;44387;-70
2021/11/16 00:15:25;;;;;;;863.42;800.47;;;;;;;7.59;66.18;102206.91;687574;28;67381;-70
2021/11/16 00:15:47;;;;;;;872.42;809.13;;;;;;;7.60;66.28;102205.06;688528;28;46151;-70
2021/11/16 00:16:08;;;;;;;924.40;859.47;;;;;;;7.60;66.08;102208.59;687852;28;44375;-70
2021/11/16 00:16:29;;;;;;;928.88;863.83;;;;;;;7.60;66.18;102195.13;689115;28;22227;-70
2021/11/16 00:16:51;;;;;;;929.15;864.13;;;;;;;7.61;66.26;102204.94;688989;28;22365;-70
2021/11/16 00:17:13;;;;;;;945.63;880.25;;;;;;;7.61;66.27;102207.63;689229;28;23299;-70
2021/11/16 00:17:34;;;;;;;952.72;887.03;;;;;;;7.61;66.24;102201.41;688575;28;46353;-70
2021/11/16 00:17:55;;;;;;;950.55;884.75;;;;;;;7.62;66.16;102200.41;689213;28;22408;-70
2021/11/16 00:18:18;;;;;;;948.35;882.75;;;;;;;7.62;66.07;102195.03;688920;28;44175;-70
2021/11/16 00:18:40;;;;;;;949.88;884.25;;;;;;;7.60;65.86;102191.59;687491;28;71127;-70
2021/11/16 00:19:03;;;;;;;952.55;886.80;;;;;;;7.57;66.12;102190.03;688721;28;46246;-70
2021/11/16 00:19:26;;;;;;;948.70;883.05;;;;;;;7.62;66.07;102200.41;688607;28;39236;-70
2021/11/16 00:19:49;;;;;;;952.92;887.13;;;;;;;7.60;65.99;102199.69;686502;28;92156;-70
2021/11/16 00:20:12;;;;;;;949.28;883.58;;;;;;;7.58;66.08;102202.47;688229;28;44443;-70
2021/11/16 00:20:36;;;;;;;947.58;881.78;;;;;;;7.58;66.16;102195.25;686962;28;92061;-70
2021/11/16 00:20:58;;;;;;;946.08;880.55;;;;;;;7.56;66.37;102205.28;686680;28;90307;-70
2021/11/16 00:21:20;;;;;;;956.70;890.80;;;;;;;7.54;66.26;102199.19;688779;28;46818;-70
2021/11/16 00:21:43;;;;;;;944.58;879.03;;;;;;;7.56;66.39;102204.44;688603;28;46359;-70
2021/11/16 00:22:04;;;;;;;951.28;885.42;;;;;;;7.57;66.41;102195.41;688001;28;67267;-70
2021/11/16 00:22:26;;;;;;;959.33;893.40;;;;;;;7.54;66.14;102201.03;689236;28;22381;-70
2021/11/16 00:22:47;;;;;;;951.75;886.05;;;;;;;7.56;66.21;102193.69;688414;28;45231;-70
2021/11/16 00:23:15;;;;;;;950.67;885.15;;;;;;;7.53;66.35;102196.63;689416;28;21386;-70
2021/11/16 00:23:37;;;;;;;948.67;883.10;;;;;;;7.56;66.32;102205.28;685158;28;137801;-70
2021/11/16 00:24:02;;;;;;;954.17;888.40;;;;;;;7.56;66.10;102199.06;688605;28;45242;-70
2021/11/16 00:24:35;;;;;;;950.60;885.00;;;;;;;7.56;66.27;102194.53;686282;28;113765;-70
2021/11/16 00:25:09;;;;;;;949.63;884.00;;;;;;;7.56;66.33;102194.53;684287;28;160614;-70
2021/11/16 00:25:33;;;;;;;947.28;881.88;;;;;;;7.57;66.11;102195.41;684399;28;157271;-70
2021/11/16 00:25:56;;;;;;;942.50;877.17;;;;;;;7.57;66.22;102193.56;686029;28;92563;-70
2021/11/16 00:26:17;;;;;;;952.70;887.10;;;;;;;7.54;66.10;102196.50;687149;28;70660;-70
2021/11/16 00:26:38;;;;;;;941.28;875.97;;;;;;;7.58;66.20;102203.31;689624;28;21532;-70
2021/11/16 00:26:59;;;;;;;941.22;875.95;;;;;;;7.60;66.13;102192.44;689762;28;23699;-70
2021/11/16 00:27:20;;;;;;;940.22;875.00;;;;;;;7.60;66.11;102194.28;688476;28;23480;-70
2021/11/16 00:27:43;;;;;;;948.45;882.85;;;;;;;7.59;66.11;102190.75;688142;28;46234;-70
2021/11/16 00:28:05;;;;;;;937.65;872.40;;;;;;;7.59;66.04;102193.44;688705;28;46449;-70
2021/11/16 00:28:27;;;;;;;942.78;877.47;;;;;;;7.60;66.09;102199.69;688110;28;66845;-70
2021/11/16 00:28:48;;;;;;;945.03;879.72;;;;;;;7.59;66.23;102196.13;689275;28;23464;-70
2021/11/16 00:29:10;;;;;;;942.67;877.38;;;;;;;7.61;66.13;102193.34;688523;28;45235;-70
2021/11/16 00:29:32;;;;;;;938.85;873.67;;;;;;;7.60;66.04;102199.69;689500;28;24606;-70
2021/11/16 00:29:53;;;;;;;938.03;872.90;;;;;;;7.60;66.19;102192.44;688828;28;43921;-70
2021/11/16 00:30:15;;;;;;;951.00;885.45;;;;;;;7.61;66.19;102193.34;689196;28;22363;-70
2021/11/16 00:30:38;;;;;;;945.83;880.30;;;;;;;7.60;66.33;102192.44;688532;28;45212;-70
2021/11/16 00:31:00;;;;;;;946.15;880.65;;;;;;;7.61;66.25;102204.09;686850;28;90358;-70
2021/11/16 00:31:21;;;;;;;943.80;878.40;;;;;;;7.59;66.37;102201.53;688533;28;46362;-70
2021/11/16 00:31:42;;;;;;;940.15;874.90;;;;;;;7.59;66.24;102198.81;689535;28;22464;-70
2021/11/16 00:32:08;;;;;;;948.33;882.75;;;;;;;7.58;66.36;102197.94;689466;28;22363;-70
2021/11/16 00:32:30;;;;;;;938.25;872.78;;;;;;;7.58;66.31;102207.84;685105;28;138041;-70
2021/11/16 00:32:52;;;;;;;940.85;875.47;;;;;;;7.58;66.05;102213.25;688512;28;45270;-70
2021/11/16 00:33:15;;;;;;;938.58;873.42;;;;;;;7.57;66.42;102200.78;689615;28;23474;-70
2021/11/16 00:33:37;;;;;;;935.15;870.03;;;;;;;7.58;66.33;102207.84;686886;28;92085;-70
2021/11/16 00:33:59;;;;;;;896.70;832.80;;;;;;;7.57;66.24;102203.47;688709;28;44190;-70
2021/11/16 00:34:20;;;;;;;918.50;853.92;;;;;;;7.57;66.37;102208.84;689356;28;22325;-70
2021/11/16 00:34:41;;;;;;;937.05;871.88;;;;;;;7.58;66.17;102213.25;688760;28;46200;-70
2021/11/16 00:35:04;;;;;;;933.40;868.40;;;;;;;7.57;66.19;102206.16;689603;28;23512;-70
2021/11/16 00:35:27;;;;;;;944.33;878.92;;;;;;;7.57;66.36;102204.31;687097;28;69333;-70
2021/11/16 00:35:48;;;;;;;942.90;877.58;;;;;;;7.59;66.16;102201.53;688865;28;45243;-70
2021/11/16 00:36:10;;;;;;;942.15;877.05;;;;;;;7.61;66.33;102206.78;688257;28;46286;-70
2021/11/16 00:36:32;;;;;;;932.30;867.50;;;;;;;7.60;66.06;102203.22;688440;28;45452;-70
2021/11/16 00:36:54;;;;;;;937.58;872.42;;;;;;;7.62;66.11;102195.91;689557;28;23437;-70
2021/11/16 00:37:16;;;;;;;940.80;875.60;;;;;;;7.61;66.09;102213.00;688050;28;62078;-70
2021/11/16 00:37:37;;;;;;;929.78;864.85;;;;;;;7.63;65.98;102194.91;687981;28;44039;-70
2021/11/16 00:37:58;;;;;;;951.70;885.92;;;;;;;7.64;66.02;102199.31;689601;28;22400;-70
2021/11/16 00:38:21;;;;;;;945.45;880.15;;;;;;;7.65;65.93;102195.66;689628;28;23204;-70
2021/11/16 00:38:42;;;;;;;934.65;869.63;;;;;;;7.65;66.12;102211.78;687623;28;69761;-70
2021/11/16 00:39:04;;;;;;;949.47;883.97;;;;;;;7.64;66.06;102207.38;689310;28;23236;-70
2021/11/16 00:39:25;;;;;;;940.47;875.25;;;;;;;7.64;66.00;102207.38;689509;28;22376;-70
2021/11/16 00:39:46;;;;;;;943.80;878.42;;;;;;;7.65;66.01;102214.47;688447;28;44389;-70
2021/11/16 00:40:11;;;;;;;948.67;883.22;;;;;;;7.67;66.00;102212.50;689367;28;22396;-70
2021/11/16 00:40:34;;;;;;;943.25;877.92;;;;;;;7.68;65.72;102203.47;682451;28;134620;-70
2021/11/16 00:40:55;;;;;;;944.78;879.38;;;;;;;7.68;65.79;102208.84;684056;28;69396;-70
2021/11/16 00:41:16;;;;;;;944.13;878.85;;;;;;;7.66;65.70;102208.09;686388;28;22496;-70
2021/11/16 00:41:38;;;;;;;946.60;881.20;;;;;;;7.66;65.64;102215.31;686601;28;22392;-70
2021/11/16 00:42:02;;;;;;;938.55;873.38;;;;;;;7.64;65.91;102220.81;686312;28;69449;-70
2021/11/16 00:42:24;;;;;;;937.72;872.70;;;;;;;7.65;65.78;102213.59;687289;28;69414;-70
2021/11/16 00:42:47;;;;;;;939.67;874.50;;;;;;;7.64;65.87;102212.75;690906;28;45286;-70
2021/11/16 00:43:09;;;;;;;946.63;881.22;;;;;;;7.64;66.05;102211.91;687367;28;68369;-70
2021/11/16 00:43:30;;;;;;;939.58;874.53;;;;;;;7.63;65.85;102216.41;688306;28;44220;-70
2021/11/16 00:43:52;;;;;;;938.28;873.20;;;;;;;7.62;65.97;102220.09;688213;28;46312;-70
2021/11/16 00:44:13;;;;;;;942.53;877.33;;;;;;;7.62;65.91;102216.53;689092;28;22396;-70
2021/11/16 00:44:35;;;;;;;942.50;877.33;;;;;;;7.61;65.83;102217.53;689503;28;22313;-70
2021/11/16 00:44:56;;;;;;;942.78;877.50;;;;;;;7.61;66.08;102221.06;688467;28;44056;-70
2021/11/16 00:45:18;;;;;;;942.63;877.35;;;;;;;7.61;65.99;102222.91;688924;28;23474;-70
2021/11/16 00:45:42;;;;;;;938.72;873.60;;;;;;;7.60;65.91;102224.72;688186;28;44526;-70
2021/11/16 00:46:04;;;;;;;942.80;877.30;;;;;;;7.60;66.04;102221.19;686124;28;92463;-70
2021/11/16 00:46:25;;;;;;;953.72;887.90;;;;;;;7.60;66.00;102221.19;688526;28;46220;-70
2021/11/16 00:46:46;;;;;;;952.08;886.40;;;;;;;7.57;66.17;102220.47;689569;28;16783;-70
2021/11/16 00:47:07;;;;;;;941.72;876.58;;;;;;;7.58;66.30;102230.22;689649;28;23555;-70
2021/11/16 00:47:28;;;;;;;938.38;873.38;;;;;;;7.55;65.95;102222.44;689556;28;22422;-70
2021/11/16 00:47:50;;;;;;;945.20;879.70;;;;;;;7.56;66.23;102226.81;688990;28;22618;-70
2021/11/16 00:48:12;;;;;;;941.03;875.83;;;;;;;7.56;66.26;102224.13;688745;28;46275;-70
2021/11/16 00:48:33;;;;;;;945.25;879.92;;;;;;;7.57;66.18;102225.00;689296;28;22405;-70
2021/11/16 00:48:54;;;;;;;936.80;871.78;;;;;;;7.55;66.40;102225.13;690858;28;42343;-70
2021/11/16 00:49:16;;;;;;;930.10;865.22;;;;;;;7.56;66.33;102229.50;691543;28;22394;-70
2021/11/16 00:49:37;;;;;;;947.60;882.08;;;;;;;7.56;66.37;102224.13;690983;28;46380;-70
2021/11/16 00:49:58;;;;;;;941.03;875.83;;;;;;;7.56;66.38;102225.97;691986;28;23759;-70
2021/11/16 00:50:20;;;;;;;938.85;873.65;;;;;;;7.56;66.38;102220.59;691746;28;22371;-70
2021/11/16 00:50:45;;;;;;;941.45;876.10;;;;;;;7.56;66.43;102220.59;690871;28;45238;-70
2021/11/16 00:51:07;;;;;;;951.53;885.90;;;;;;;7.56;66.39;102218.75;686856;28;92947;-70
2021/11/16 00:51:29;;;;;;;941.63;876.28;;;;;;;7.54;66.17;102215.31;688552;28;45233;-70
2021/11/16 00:51:50;;;;;;;937.03;871.75;;;;;;;7.57;66.08;102216.94;687957;28;69413;-70
2021/11/16 00:52:11;;;;;;;916.67;852.15;;;;;;;7.58;66.08;102215.94;689574;28;22394;-70
2021/11/16 00:52:33;;;;;;;943.13;877.72;;;;;;;7.57;66.41;102217.78;689104;28;22389;-70
2021/11/16 00:52:55;;;;;;;951.22;885.53;;;;;;;7.54;66.13;102212.63;688809;28;45334;-70
2021/11/16 00:53:16;;;;;;;949.08;883.55;;;;;;;7.57;66.33;102211.56;688716;28;46464;-70
2021/11/16 00:53:38;;;;;;;955.08;889.33;;;;;;;7.55;66.39;102214.34;689516;28;23544;-70
2021/11/16 00:53:59;;;;;;;951.47;885.85;;;;;;;7.57;66.14;102214.25;688856;28;47492;-70
2021/11/16 00:54:22;;;;;;;951.72;886.13;;;;;;;7.57;66.40;102217.78;690307;28;851;-70
2021/11/16 00:54:43;;;;;;;952.78;886.97;;;;;;;7.57;66.33;102219.63;688293;28;46230;-70
2021/11/16 00:55:05;;;;;;;949.78;884.17;;;;;;;7.56;66.30;102212.50;689154;28;21651;-70
2021/11/16 00:55:26;;;;;;;956.88;890.95;;;;;;;7.56;66.33;102217.91;688430;28;20413;-70
2021/11/16 00:55:49;;;;;;;963.60;897.35;;;;;;;7.57;66.28;102217.78;689328;28;23827;-70
2021/11/16 00:56:11;;;;;;;958.67;892.70;;;;;;;7.57;66.38;102212.41;687434;28;69618;-70
2021/11/16 00:56:32;;;;;;;954.92;889.13;;;;;;;7.54;66.29;102207.25;689754;28;13668;-70
2021/11/16 00:56:53;;;;;;;953.92;888.13;;;;;;;7.57;66.36;102215.09;689668;28;18943;-70
2021/11/16 00:57:15;;;;;;;949.50;883.90;;;;;;;7.57;66.28;102212.41;690469;28;977;-71
2021/11/16 00:57:36;;;;;;;953.33;887.58;;;;;;;7.58;66.10;102214.09;688496;28;45215;-70
2021/11/16 00:57:58;;;;;;;957.80;891.70;;;;;;;7.56;66.23;102215.22;689295;28;19898;-70
2021/11/16 00:58:19;;;;;;;954.25;888.55;;;;;;;7.60;66.31;102215.81;688819;28;46372;-70
2021/11/16 00:58:40;;;;;;;958.05;892.13;;;;;;;7.60;66.03;102213.13;689455;28;22475;-70
2021/11/16 00:59:01;;;;;;;960.20;894.22;;;;;;;7.58;66.02;102219.47;689633;28;22514;-70
2021/11/16 00:59:23;;;;;;;960.00;894.15;;;;;;;7.57;66.21;102209.72;690276;28;5254;-70
2021/11/16 00:59:44;;;;;;;953.10;887.20;;;;;;;7.59;66.32;102212.28;688790;28;45244;-70
2021/11/16 01:00:10;;;;;;;952.13;886.30;;;;;;;7.58;66.23;102214.09;689580;28;23722;-70
2021/11/16 01:00:32;;;;;;;954.30;888.50;;;;;;;7.58;66.16;102214.09;687804;28;61652;-70
2021/11/16 01:00:53;;;;;;;959.83;893.72;;;;;;;7.60;66.11;102208.59;688560;28;45245;-70
2021/11/16 01:01:14;;;;;;;959.38;893.38;;;;;;;7.61;66.19;102209.47;691652;28;22078;-70
2021/11/16 01:01:35;;;;;;;959.17;893.17;;;;;;;7.61;66.30;102215.69;692110;28;22412;-70
2021/11/16 01:01:57;;;;;;;955.65;889.85;;;;;;;7.61;66.07;102214.84;692024;28;22477;-70
2021/11/16 01:02:19;;;;;;;951.70;886.03;;;;;;;7.60;66.14;102211.28;689568;28;69345;-70
2021/11/16 01:02:40;;;;;;;948.47;882.88;;;;;;;7.60;66.01;102211.28;691574;28;22383;-70
2021/11/16 01:03:01;;;;;;;955.35;889.45;;;;;;;7.60;66.27;102205.91;691361;28;21571;-70
2021/11/16 01:03:24;;;;;;;953.13;887.38;;;;;;;7.61;66.19;102204.94;690103;28;3496;-70
2021/11/16 01:03:45;;;;;;;952.53;886.83;;;;;;;7.61;66.01;102204.09;687752;28;69467;-70
2021/11/16 01:04:06;;;;;;;958.35;892.45;;;;;;;7.61;66.30;102206.78;689556;28;22371;-70
2021/11/16 01:04:28;;;;;;;956.85;890.95;;;;;;;7.60;65.98;102205.91;688796;28;20940;-70
2021/11/16 01:04:51;;;;;;;955.40;889.55;;;;;;;7.60;66.14;102205.06;688380;28;46105;-70
2021/11/16 01:05:13;;;;;;;934.03;868.92;;;;;;;7.62;66.27;102208.47;686653;28;92186;-70
2021/11/16 01:05:34;;;;;;;910.03;845.67;;;;;;;7.62;66.14;102198.59;689219;28;21536;-70
2021/11/16 01:05:56;;;;;;;946.90;881.40;;;;;;;7.63;66.28;102194.06;688599;28;46313;-70
2021/11/16 01:06:18;;;;;;;946.45;880.97;;;;;;;7.62;66.18;102200.41;689255;28;22379;-70
2021/11/16 01:06:39;;;;;;;954.15;888.40;;;;;;;7.64;65.87;102204.69;688678;28;47177;-70
2021/11/16 01:07:02;;;;;;;955.03;889.25;;;;;;;7.61;65.87;102204.94;688831;28;47365;-70
2021/11/16 01:07:24;;;;;;;950.53;884.90;;;;;;;7.64;66.19;102196.63;687774;28;69447;-70
2021/11/16 01:07:45;;;;;;;967.08;900.67;;;;;;;7.64;65.81;102199.31;687906;28;44099;-70
2021/11/16 01:08:07;;;;;;;957.10;891.10;;;;;;;7.64;66.01;102199.31;689194;28;23462;-70
2021/11/16 01:08:28;;;;;;;951.75;886.05;;;;;;;7.65;65.84;102192.09;688618;28;44369;-70
2021/11/16 01:08:50;;;;;;;956.13;890.17;;;;;;;7.64;66.03;102193.09;689224;28;22413;-70
2021/11/16 01:09:11;;;;;;;963.33;897.22;;;;;;;7.64;65.79;102196.63;688664;28;44145;-70
2021/11/16 01:09:33;;;;;;;961.67;895.65;;;;;;;7.63;65.81;102194.91;689423;28;23398;-70
2021/11/16 01:09:54;;;;;;;961.55;895.60;;;;;;;7.62;65.87;102195.91;689559;28;23444;-70
2021/11/16 01:10:19;;;;;;;965.20;899.10;;;;;;;7.62;65.92;102192.34;689129;28;22401;-70
2021/11/16 01:10:43;;;;;;;963.60;897.50;;;;;;;7.63;66.00;102196.75;685298;28;136367;-70
2021/11/16 01:11:05;;;;;;;954.28;888.38;;;;;;;7.62;65.86;102190.53;686925;28;70541;-70
2021/11/16 01:11:26;;;;;;;956.03;890.13;;;;;;;7.61;66.02;102182.56;687862;28;69451;-70
2021/11/16 01:11:49;;;;;;;959.28;893.28;;;;;;;7.67;65.81;102193.69;689520;28;22240;-70
2021/11/16 01:12:11;;;;;;;961.70;895.63;;;;;;;7.68;66.12;102187.34;687991;28;46296;-70
2021/11/16 01:12:32;;;;;;;952.15;886.40;;;;;;;7.71;65.72;102187.09;688625;28;45248;-70
2021/11/16 01:12:53;;;;;;;953.50;887.67;;;;;;;7.74;65.82;102199.44;689446;28;22405;-70
2021/11/16 01:13:17;;;;;;;954.72;888.92;;;;;;;7.75;65.87;102191.22;688761;28;46358;-70
2021/11/16 01:13:38;;;;;;;958.08;892.20;;;;;;;7.76;65.50;102187.56;687676;28;69413;-70
2021/11/16 01:14:00;;;;;;;943.10;877.67;;;;;;;7.76;65.33;102186.72;688822;28;46437;-70
2021/11/16 01:14:21;;;;;;;953.60;887.88;;;;;;;7.76;65.48;102184.88;688975;28;22499;-70
2021/11/16 01:14:44;;;;;;;952.30;886.58;;;;;;;7.76;65.35;102184.03;689505;28;23528;-70
2021/11/16 01:15:15;;;;;;;947.03;881.58;;;;;;;7.74;65.32;102181.47;687428;28;58890;-70
2021/11/16 01:15:38;;;;;;;956.50;890.72;;;;;;;7.75;65.31;102185.84;687833;28;67476;-70
2021/11/16 01:16:00;;;;;;;945.15;879.72;;;;;;;7.72;65.45;102172.66;687412;28;70240;-70
2021/11/16 01:16:22;;;;;;;944.72;879.30;;;;;;;7.72;65.47;102175.34;688417;28;45246;-70
2021/11/16 01:16:44;;;;;;;949.20;883.55;;;;;;;7.71;65.47;102181.72;688583;28;46120;-70
2021/11/16 01:17:05;;;;;;;957.13;891.17;;;;;;;7.66;65.56;102175.84;688593;28;44218;-70
2021/11/16 01:17:26;;;;;;;951.72;885.90;;;;;;;7.68;65.66;102175.72;691537;28;23846;-70
2021/11/16 01:17:49;;;;;;;950.92;885.03;;;;;;;7.66;65.80;102178.53;691410;28;22393;-70
2021/11/16 01:18:11;;;;;;;947.88;882.33;;;;;;;7.66;65.77;102178.53;689394;28;69776;-70
2021/11/16 01:18:32;;;;;;;950.03;884.40;;;;;;;7.65;65.92;102179.53;690535;28;46319;-70
2021/11/16 01:18:56;;;;;;;947.00;881.45;;;;;;;7.64;65.96;102176.94;691851;28;23482;-70
2021/11/16 01:19:17;;;;;;;948.17;882.67;;;;;;;7.63;65.82;102180.59;688137;28;90750;-70
2021/11/16 01:19:38;;;;;;;946.08;880.50;;;;;;;7.62;66.06;102178.88;689182;28;23325;-70
2021/11/16 01:19:59;;;;;;;946.90;881.40;;;;;;;7.62;65.99;102173.50;689680;28;22401;-70
2021/11/16 01:20:22;;;;;;;947.38;881.97;;;;;;;7.61;66.11;102175.34;688244;28;48104;-70
2021/11/16 01:20:45;;;;;;;957.22;891.35;;;;;;;7.61;66.09;102180.72;688713;28;44391;-70
2021/11/16 01:21:06;;;;;;;954.72;889.05;;;;;;;7.61;66.01;102182.56;687288;28;69497;-70
2021/11/16 01:21:27;;;;;;;952.70;887.00;;;;;;;7.61;66.06;102178.03;689550;28;21223;-70
2021/11/16 01:21:50;;;;;;;946.50;881.03;;;;;;;7.62;65.87;102178.88;688692;28;46308;-70
2021/11/16 01:22:11;;;;;;;957.03;891.17;;;;;;;7.63;66.17;102167.16;688378;28;45247;-70
2021/11/16 01:22:32;;;;;;;952.80;887.08;;;;;;;7.61;65.94;102169.13;690128;28;21226;-70
2021/11/16 01:22:55;;;;;;;942.22;876.92;;;;;;;7.62;65.88;102179.75;690133;28;21524;-70
2021/11/16 01:23:19;;;;;;;951.22;885.65;;;;;;;7.60;65.99;102173.63;687435;28;92113;-70
2021/11/16 01:23:40;;;;;;;947.33;881.90;;;;;;;7.62;65.93;102176.19;688448;28;69373;-70
2021/11/16 01:24:02;;;;;;;947.92;882.35;;;;;;;7.61;65.96;102177.19;689641;28;22291;-70
2021/11/16 01:24:23;;;;;;;951.50;885.80;;;;;;;7.62;66.12;102168.13;688963;28;46460;-70
2021/11/16 01:24:45;;;;;;;953.45;887.63;;;;;;;7.68;65.88;102181.97;689922;28;22055;-70
2021/11/16 01:25:08;;;;;;;945.10;879.63;;;;;;;7.68;65.84;102173.03;688566;28;68321;-70
2021/11/16 01:25:29;;;;;;;949.60;883.90;;;;;;;7.65;65.87;102170.56;688347;28;46262;-69
2021/11/16 01:25:51;;;;;;;953.72;887.83;;;;;;;7.64;65.81;102175.09;688386;28;45302;-69
2021/11/16 01:26:15;;;;;;;949.42;883.85;;;;;;;7.63;65.60;102170.69;689597;28;22349;-69
2021/11/16 01:26:36;;;;;;;946.83;881.33;;;;;;;7.62;65.64;102177.06;689634;28;32577;-69
2021/11/16 01:26:58;;;;;;;949.00;883.45;;;;;;;7.60;65.56;102168.25;689324;28;46338;-69
2021/11/16 01:27:20;;;;;;;950.30;884.65;;;;;;;7.58;65.67;102176.44;690089;28;22384;-69
2021/11/16 01:27:42;;;;;;;949.70;884.20;;;;;;;7.56;66.00;102173.03;687466;28;69328;-69
2021/11/16 01:28:08;;;;;;;943.65;878.35;;;;;;;7.56;66.05;102167.66;688578;28;67535;-69
2021/11/16 01:28:29;;;;;;;942.08;876.78;;;;;;;7.58;65.88;102170.22;686977;28;113625;-69
2021/11/16 01:28:50;;;;;;;936.42;871.25;;;;;;;7.60;65.84;102170.09;689134;28;45319;-69
2021/11/16 01:29:11;;;;;;;940.10;874.80;;;;;;;7.58;66.12;102170.22;690196;28;22446;-69
2021/11/16 01:29:36;;;;;;;948.42;882.88;;;;;;;7.57;65.87;102174.75;689926;28;23502;-70
2021/11/16 01:29:57;;;;;;;953.53;887.80;;;;;;;7.56;66.11;102167.66;687689;28;90808;-70
2021/11/16 01:30:21;;;;;;;958.58;892.78;;;;;;;7.56;65.84;102166.81;689691;28;23462;-70
2021/11/16 01:30:47;;;;;;;947.42;882.00;;;;;;;7.54;66.10;102169.63;686776;28;114844;-70
2021/11/16 01:31:08;;;;;;;942.15;876.85;;;;;;;7.56;66.16;102169.50;685664;28;138128;-70
2021/11/16 01:31:30;;;;;;;947.45;882.05;;;;;;;7.54;66.09;102168.78;690044;28;22220;-70
2021/11/16 01:31:54;;;;;;;921.38;856.75;;;;;;;7.54;66.04;102171.47;689496;28;22401;-70
2021/11/16 01:32:27;;;;;;;904.28;840.33;;;;;;;7.55;66.19;102175.84;686838;28;114886;-70
2021/11/16 01:32:52;;;;;;;949.15;883.67;;;;;;;7.51;66.15;102169.84;686136;28;135554;-70
2021/11/16 01:33:18;;;;;;;948.63;883.13;;;;;;;7.51;66.37;102163.63;686623;28;115192;-70
2021/11/16 01:33:43;;;;;;;948.70;883.20;;;;;;;7.50;66.32;102168.13;685973;28;137920;-70
2021/11/16 01:34:06;;;;;;;940.28;874.95;;;;;;;7.49;66.25;102169.13;686467;28;115671;-70
2021/11/16 01:34:30;;;;;;;947.83;882.30;;;;;;;7.49;66.22;102165.56;688454;28;69192;-70
2021/11/16 01:34:52;;;;;;;954.55;888.65;;;;;;;7.49;66.26;102165.56;687605;28;92262;-70
2021/11/16 01:35:14;;;;;;;956.67;890.88;;;;;;;7.51;66.42;102167.16;688949;28;46433;-70
2021/11/16 01:35:37;;;;;;;962.03;895.92;;;;;;;7.51;66.11;102169.00;688897;28;46516;-70
2021/11/16 01:35:59;;;;;;;947.63;882.00;;;;;;;7.50;66.23;102170.81;688045;28;67575;-70
2021/11/16 01:36:20;;;;;;;948.47;882.92;;;;;;;7.51;66.32;102166.31;689354;28;46503;-70
2021/11/16 01:36:41;;;;;;;943.53;878.13;;;;;;;7.52;66.30;102176.09;689919;28;22255;-70
2021/11/16 01:37:02;;;;;;;951.67;886.00;;;;;;;7.52;66.38;102174.28;690105;28;23440;-70
2021/11/16 01:37:25;;;;;;;959.30;893.40;;;;;;;7.52;66.43;102171.59;688435;28;43144;-70
2021/11/16 01:37:46;;;;;;;958.53;892.42;;;;;;;7.52;66.39;102173.41;688321;28;45232;-70
2021/11/16 01:38:08;;;;;;;951.15;885.33;;;;;;;7.50;66.24;102168.13;689755;28;21322;-70
2021/11/16 01:38:29;;;;;;;951.33;885.65;;;;;;;7.52;66.26;102171.59;688101;28;69749;-70
2021/11/16 01:38:55;;;;;;;946.70;881.28;;;;;;;7.53;66.13;102167.91;689771;28;22363;-70
2021/11/16 01:39:16;;;;;;;954.63;888.92;;;;;;;7.54;66.07;102171.47;686501;28;114729;-70
2021/11/16 01:39:37;;;;;;;944.72;879.33;;;;;;;7.54;66.02;102171.47;689540;28;23494;-70
2021/11/16 01:39:58;;;;;;;946.80;881.38;;;;;;;7.54;66.33;102174.16;688880;28;46328;-70
2021/11/16 01:40:20;;;;;;;954.85;889.13;;;;;;;7.53;66.13;102172.44;689892;28;6596;-70
2021/11/16 01:40:43;;;;;;;954.55;888.78;;;;;;;7.52;66.12;102171.59;689783;28;21627;-70